createdAt,value
2018-05-27T00:02:28.949Z,18.80
2018-05-27T00:04:57.607Z,18.80
2018-05-27T00:07:25.854Z,18.80
2018-05-27T00:09:55.110Z,18.80
2018-05-27T00:12:23.806Z,18.80
2018-05-27T00:14:53.127Z,18.80
2018-05-27T00:17:23.768Z,18.70
2018-05-27T00:19:52.082Z,18.70
2018-05-27T00:22:20.332Z,18.80
2018-05-27T00:24:48.599Z,18.70
2018-05-27T00:27:17.043Z,18.70
2018-05-27T00:29:45.247Z,18.60
2018-05-27T00:32:15.069Z,18.60
2018-05-27T00:34:43.272Z,18.60
2018-05-27T00:37:11.508Z,18.60
2018-05-27T00:39:39.715Z,18.60
2018-05-27T00:42:09.675Z,18.60
2018-05-27T00:44:37.887Z,18.60
2018-05-27T00:47:06.338Z,18.50
2018-05-27T00:49:34.575Z,18.50
2018-05-27T00:52:02.797Z,18.50
2018-05-27T00:54:31.748Z,18.50
2018-05-27T00:57:00.857Z,18.60
2018-05-27T00:59:29.099Z,18.60
2018-05-27T01:01:59.838Z,18.60
2018-05-27T01:04:29.725Z,18.70
2018-05-27T01:06:57.937Z,18.70
2018-05-27T01:09:27.034Z,18.80
2018-05-27T01:11:55.878Z,18.90
2018-05-27T01:14:24.071Z,18.90
2018-05-27T01:16:54.124Z,18.90
2018-05-27T01:19:22.354Z,19.00
2018-05-27T01:21:50.588Z,18.90
2018-05-27T01:24:18.797Z,18.80
2018-05-27T01:26:47.041Z,18.70
2018-05-27T01:31:50.896Z,18.40
2018-05-27T01:34:19.118Z,18.20
2018-05-27T01:36:47.325Z,18.00
2018-05-27T01:39:16.448Z,17.80
2018-05-27T01:41:44.681Z,17.70
2018-05-27T01:44:12.890Z,17.50
2018-05-27T01:46:41.118Z,17.40
2018-05-27T01:49:09.312Z,17.20
2018-05-27T01:51:37.502Z,17.10
2018-05-27T01:54:05.888Z,17.00
2018-05-27T01:56:34.076Z,16.90
2018-05-27T01:59:03.184Z,16.80
2018-05-27T02:01:31.388Z,16.70
2018-05-27T02:03:59.596Z,16.70
2018-05-27T02:06:28.534Z,16.70
2018-05-27T02:08:57.545Z,16.60
2018-05-27T02:11:26.546Z,16.60
2018-05-27T02:13:57.250Z,16.60
2018-05-27T02:16:25.517Z,16.60
2018-05-27T02:18:58.315Z,16.60
2018-05-27T02:21:27.074Z,16.50
2018-05-27T02:23:55.333Z,16.50
2018-05-27T02:26:23.544Z,16.40
2018-05-27T02:28:51.853Z,16.30
2018-05-27T02:31:20.063Z,16.30
2018-05-27T02:33:48.316Z,16.30
2018-05-27T02:36:16.588Z,16.20
2018-05-27T02:38:46.367Z,16.20
2018-05-27T02:41:14.630Z,16.20
2018-05-27T02:43:42.859Z,16.20
2018-05-27T02:46:11.077Z,16.10
2018-05-27T02:48:39.273Z,16.10
2018-05-27T02:51:08.254Z,16.00
2018-05-27T02:53:36.606Z,15.90
2018-05-27T02:56:04.874Z,15.90
2018-05-27T02:58:33.082Z,15.80
2018-05-27T03:01:02.356Z,15.80
2018-05-27T03:03:30.832Z,15.80
2018-05-27T03:05:59.059Z,15.90
2018-05-27T03:08:28.925Z,15.90
2018-05-27T03:10:57.130Z,15.90
2018-05-27T03:13:25.342Z,15.90
2018-05-27T03:15:53.576Z,15.90
2018-05-27T03:18:22.838Z,16.00
2018-05-27T03:20:51.090Z,16.00
2018-05-27T03:23:20.546Z,16.00
2018-05-27T03:25:49.196Z,16.00
2018-05-27T03:28:17.437Z,16.10
2018-05-27T03:30:46.236Z,16.10
2018-05-27T03:33:14.428Z,16.10
2018-05-27T03:35:42.636Z,16.20
2018-05-27T03:38:10.870Z,16.20
2018-05-27T03:40:40.013Z,16.20
2018-05-27T03:43:08.281Z,16.30
2018-05-27T03:45:37.405Z,16.30
2018-05-27T03:48:06.613Z,16.30
2018-05-27T03:50:35.605Z,16.30
2018-05-27T03:53:04.003Z,16.40
2018-05-27T03:55:32.282Z,16.30
2018-05-27T03:58:01.333Z,16.40
2018-05-27T04:00:31.055Z,16.40
2018-05-27T04:02:59.874Z,16.40
2018-05-27T04:08:42.245Z,16.40
2018-05-27T04:11:10.516Z,16.30
2018-05-27T04:13:38.802Z,16.40
2018-05-27T04:16:07.109Z,16.40
2018-05-27T04:18:35.696Z,16.40
2018-05-27T04:21:04.855Z,16.40
2018-05-27T04:23:33.161Z,16.40
2018-05-27T04:26:01.426Z,16.50
2018-05-27T04:28:29.870Z,16.50
2018-05-27T04:31:02.179Z,16.50
2018-05-27T04:33:30.473Z,16.50
2018-05-27T04:35:58.713Z,16.50
2018-05-27T04:38:26.959Z,16.50
2018-05-27T04:40:55.509Z,16.50
2018-05-27T04:43:24.404Z,16.60
2018-05-27T04:45:52.610Z,16.60
2018-05-27T04:48:20.849Z,16.60
2018-05-27T04:50:49.946Z,16.70
2018-05-27T04:53:18.254Z,16.70
2018-05-27T04:55:46.509Z,16.80
2018-05-27T04:58:15.480Z,16.80
2018-05-27T05:00:44.058Z,16.80
2018-05-27T05:03:12.377Z,16.80
2018-05-27T05:05:40.611Z,16.90
2018-05-27T05:08:09.992Z,16.90
2018-05-27T05:10:39.556Z,16.90
2018-05-27T05:13:09.047Z,16.90
2018-05-27T05:15:38.829Z,17.00
2018-05-27T05:18:07.116Z,17.00
2018-05-27T05:20:35.409Z,17.00
2018-05-27T05:23:04.909Z,17.00
2018-05-27T05:25:35.106Z,17.00
2018-05-27T05:28:04.399Z,17.00
2018-05-27T05:30:32.729Z,17.00
2018-05-27T05:33:02.101Z,17.10
2018-05-27T05:35:31.429Z,17.10
2018-05-27T05:38:01.626Z,17.10
2018-05-27T05:40:30.878Z,17.10
2018-05-27T05:43:01.059Z,17.20
2018-05-27T05:45:29.518Z,17.30
2018-05-27T05:47:58.645Z,17.40
2018-05-27T05:50:26.929Z,17.60
2018-05-27T05:52:55.954Z,17.70
2018-05-27T05:55:24.713Z,17.70
2018-05-27T05:57:52.963Z,17.80
2018-05-27T06:00:21.445Z,17.80
2018-05-27T06:02:50.765Z,17.80
2018-05-27T06:05:19.782Z,17.90
2018-05-27T06:07:48.024Z,17.90
2018-05-27T06:10:19.422Z,17.90
2018-05-27T06:12:48.559Z,18.00
2018-05-27T06:15:16.778Z,18.00
2018-05-27T06:17:45.055Z,18.10
2018-05-27T06:20:13.278Z,18.10
2018-05-27T06:22:41.489Z,18.20
2018-05-27T06:25:09.744Z,18.30
2018-05-27T06:27:40.188Z,18.50
2018-05-27T06:30:09.185Z,18.70
2018-05-27T06:32:38.211Z,18.90
2018-05-27T06:35:06.735Z,19.20
2018-05-27T06:37:35.718Z,19.40
2018-05-27T06:40:03.956Z,19.60
2018-05-27T06:42:32.178Z,19.80
2018-05-27T06:45:00.546Z,19.90
2018-05-27T06:47:28.730Z,20.00
2018-05-27T06:49:56.985Z,20.10
2018-05-27T06:52:25.915Z,20.30
2018-05-27T06:54:54.117Z,20.40
2018-05-27T06:57:22.400Z,20.50
2018-05-27T06:59:50.677Z,20.60
2018-05-27T07:02:20.013Z,20.70
2018-05-27T07:04:49.086Z,20.70
2018-05-27T07:07:19.193Z,20.70
2018-05-27T07:09:47.434Z,20.80
2018-05-27T07:12:17.846Z,20.80
2018-05-27T07:14:46.969Z,20.90
2018-05-27T07:17:15.223Z,20.90
2018-05-27T07:19:44.570Z,21.00
2018-05-27T07:22:14.061Z,21.10
2018-05-27T07:24:49.484Z,21.20
2018-05-27T07:27:35.270Z,21.40
2018-05-27T07:30:03.868Z,21.50
2018-05-27T07:32:33.899Z,21.60
2018-05-27T07:35:04.340Z,21.70
2018-05-27T07:37:32.780Z,21.80
2018-05-27T07:40:05.282Z,22.00
2018-05-27T07:42:33.674Z,22.10
2018-05-27T07:45:06.096Z,22.30
2018-05-27T07:47:34.555Z,22.40
2018-05-27T07:50:03.289Z,22.50
2018-05-27T07:52:31.548Z,22.50
2018-05-27T07:55:00.765Z,22.60
2018-05-27T07:57:29.608Z,22.60
2018-05-27T07:59:57.877Z,22.60
2018-05-27T08:02:28.012Z,22.60
2018-05-27T08:04:56.635Z,22.60
2018-05-27T08:07:25.827Z,22.70
2018-05-27T08:09:54.198Z,22.70
2018-05-27T08:12:26.928Z,22.80
2018-05-27T08:14:56.093Z,22.80
2018-05-27T08:17:28.247Z,22.90
2018-05-27T08:19:58.901Z,23.00
2018-05-27T08:22:28.574Z,23.00
2018-05-27T08:24:56.876Z,23.10
2018-05-27T08:27:30.610Z,23.30
2018-05-27T08:29:59.097Z,23.40
2018-05-27T08:32:31.707Z,23.50
2018-05-27T08:35:00.243Z,23.60
2018-05-27T08:37:28.518Z,23.70
2018-05-27T08:39:58.857Z,23.70
2018-05-27T08:42:28.656Z,23.80
2018-05-27T08:44:57.689Z,23.80
2018-05-27T08:47:26.389Z,24.00
2018-05-27T08:49:55.570Z,24.10
2018-05-27T08:52:23.771Z,24.30
2018-05-27T08:54:57.005Z,24.60
2018-05-27T08:57:30.586Z,24.80
2018-05-27T09:00:00.330Z,25.10
2018-05-27T09:02:29.681Z,25.30
2018-05-27T09:04:58.853Z,25.60
2018-05-27T09:07:27.134Z,25.80
2018-05-27T09:09:57.255Z,26.00
2018-05-27T09:12:27.868Z,26.20
2018-05-27T09:14:59.278Z,26.30
2018-05-27T09:17:28.879Z,26.40
2018-05-27T09:20:04.535Z,26.40
2018-05-27T09:22:38.262Z,26.40
2018-05-27T09:27:51.575Z,26.40
2018-05-27T09:30:31.584Z,26.40
2018-05-27T09:33:01.578Z,26.40
2018-05-27T09:35:34.703Z,26.30
2018-05-27T09:38:05.583Z,26.20
2018-05-27T09:40:33.823Z,26.20
2018-05-27T09:43:02.988Z,26.10
2018-05-27T09:45:32.145Z,26.10
2018-05-27T09:48:06.987Z,26.10
2018-05-27T09:50:46.002Z,26.10
2018-05-27T09:53:14.370Z,26.10
2018-05-27T09:55:43.484Z,26.10
2018-05-27T09:58:11.763Z,26.10
2018-05-27T10:01:04.536Z,26.20
2018-05-27T10:03:33.975Z,26.20
2018-05-27T10:06:02.684Z,26.20
2018-05-27T10:08:30.934Z,26.20
2018-05-27T10:10:59.762Z,26.20
2018-05-27T10:13:28.831Z,26.20
2018-05-27T10:15:57.270Z,26.20
2018-05-27T10:20:59.828Z,26.60
2018-05-27T10:23:28.065Z,26.80
2018-05-27T10:25:56.341Z,26.90
2018-05-27T10:28:24.671Z,27.00
2018-05-27T10:30:52.927Z,27.10
2018-05-27T10:33:27.868Z,27.20
2018-05-27T10:35:56.915Z,27.50
2018-05-27T10:38:27.710Z,27.70
2018-05-27T10:40:58.496Z,28.00
2018-05-27T10:43:26.979Z,28.10
2018-05-27T10:45:55.200Z,28.30
2018-05-27T10:48:26.446Z,28.40
2018-05-27T10:50:54.672Z,28.50
2018-05-27T10:53:23.182Z,28.60
2018-05-27T10:55:53.989Z,28.70
2018-05-27T10:58:22.519Z,28.80
2018-05-27T11:00:51.588Z,29.00
2018-05-27T11:03:26.975Z,29.10
2018-05-27T11:05:55.261Z,29.20
2018-05-27T11:08:23.484Z,29.30
2018-05-27T11:10:52.715Z,29.40
2018-05-27T11:13:22.181Z,29.60
2018-05-27T11:15:51.344Z,29.80
2018-05-27T11:18:19.596Z,30.00
2018-05-27T11:20:48.328Z,30.10
2018-05-27T11:23:17.398Z,30.30
2018-05-27T11:25:45.853Z,30.40
2018-05-27T11:28:14.948Z,30.50
2018-05-27T11:30:43.491Z,30.60
2018-05-27T11:33:12.695Z,30.50
2018-05-27T11:35:40.878Z,30.80
2018-05-27T11:38:09.664Z,30.80
2018-05-27T11:40:38.803Z,30.80
2018-05-27T11:43:07.150Z,30.90
2018-05-27T11:45:35.358Z,31.00
2018-05-27T11:48:04.828Z,31.00
2018-05-27T11:50:33.209Z,31.10
2018-05-27T11:53:01.479Z,31.30
2018-05-27T11:55:30.674Z,31.40
2018-05-27T11:58:00.026Z,31.60
2018-05-27T12:00:28.440Z,31.80
2018-05-27T12:02:57.264Z,31.90
2018-05-27T12:05:26.330Z,32.00
2018-05-27T12:07:54.861Z,31.80
2018-05-27T12:10:23.101Z,32.00
2018-05-27T12:12:52.187Z,31.90
2018-05-27T12:15:20.392Z,31.80
2018-05-27T12:17:48.601Z,31.80
2018-05-27T12:20:16.804Z,31.80
2018-05-27T12:22:44.981Z,31.80
2018-05-27T12:25:13.296Z,31.70
2018-05-27T12:27:41.514Z,31.60
2018-05-27T12:30:09.721Z,31.40
2018-05-27T12:32:38.870Z,31.30
2018-05-27T12:35:07.094Z,31.20
2018-05-27T12:37:35.321Z,31.20
2018-05-27T12:40:06.251Z,31.10
2018-05-27T12:42:34.577Z,31.10
2018-05-27T12:45:02.810Z,31.00
2018-05-27T12:47:31.037Z,31.00
2018-05-27T12:49:59.270Z,31.10
2018-05-27T12:52:27.849Z,31.20
2018-05-27T12:54:57.355Z,31.30
2018-05-27T12:57:25.849Z,31.50
2018-05-27T12:59:54.356Z,31.70
2018-05-27T13:02:22.708Z,31.60
2018-05-27T13:04:50.963Z,31.80
2018-05-27T13:07:19.954Z,31.80
2018-05-27T13:09:48.795Z,31.80
2018-05-27T13:12:17.985Z,31.80
2018-05-27T13:14:46.207Z,31.80
2018-05-27T13:17:14.431Z,31.80
2018-05-27T13:19:42.998Z,31.80
2018-05-27T13:22:12.145Z,31.80
2018-05-27T13:24:41.157Z,31.80
2018-05-27T13:27:09.422Z,31.70
2018-05-27T13:29:37.651Z,31.60
2018-05-27T13:32:05.909Z,31.60
2018-05-27T13:34:34.949Z,31.50
2018-05-27T13:37:03.375Z,31.50
2018-05-27T13:39:33.260Z,31.50
2018-05-27T13:42:03.763Z,31.50
2018-05-27T13:44:33.095Z,31.50
2018-05-27T13:47:02.294Z,31.50
2018-05-27T13:49:31.073Z,31.40
2018-05-27T13:51:59.386Z,31.40
2018-05-27T13:54:27.597Z,31.40
2018-05-27T13:56:56.929Z,31.10
2018-05-27T13:59:25.182Z,31.20
2018-05-27T14:01:57.838Z,31.20
2018-05-27T14:04:26.030Z,31.20
2018-05-27T14:06:54.235Z,30.90
2018-05-27T14:09:22.605Z,31.10
2018-05-27T14:11:51.329Z,31.00
2018-05-27T14:14:20.165Z,31.00
2018-05-27T14:16:49.068Z,30.90
2018-05-27T14:19:17.249Z,30.90
2018-05-27T14:21:45.469Z,30.90
2018-05-27T14:24:13.779Z,30.90
2018-05-27T14:26:43.000Z,31.00
2018-05-27T14:29:12.256Z,31.10
2018-05-27T14:31:41.481Z,31.20
2018-05-27T14:34:10.027Z,31.20
2018-05-27T14:36:39.184Z,31.10
2018-05-27T14:39:07.454Z,31.00
2018-05-27T14:41:35.735Z,30.90
2018-05-27T14:44:05.111Z,30.70
2018-05-27T14:49:11.172Z,30.50
2018-05-27T14:51:40.292Z,31.00
2018-05-27T14:54:09.687Z,32.20
2018-05-27T14:56:39.573Z,33.20
2018-05-27T14:59:07.983Z,34.10
2018-05-27T15:01:36.306Z,35.40
2018-05-27T15:04:05.620Z,36.40
2018-05-27T15:06:34.070Z,36.70
2018-05-27T15:09:03.373Z,36.40
2018-05-27T15:11:31.614Z,35.90
2018-05-27T15:13:59.821Z,35.30
2018-05-27T15:16:28.053Z,34.70
2018-05-27T15:18:57.042Z,34.20
2018-05-27T15:21:26.191Z,33.70
2018-05-27T15:23:54.421Z,33.30
2018-05-27T15:26:23.390Z,32.90
2018-05-27T15:28:52.729Z,32.50
2018-05-27T15:31:20.957Z,32.20
2018-05-27T15:33:49.509Z,31.90
2018-05-27T15:36:19.049Z,31.70
2018-05-27T15:38:47.243Z,31.40
2018-05-27T15:41:16.297Z,31.20
2018-05-27T15:43:44.542Z,31.00
2018-05-27T15:46:12.747Z,30.80
2018-05-27T15:48:40.984Z,30.70
2018-05-27T15:51:10.001Z,30.40
2018-05-27T15:53:38.789Z,30.30
2018-05-27T15:56:07.551Z,30.20
2018-05-27T15:58:36.129Z,30.00
2018-05-27T16:01:04.400Z,29.90
2018-05-27T16:03:34.420Z,29.80
2018-05-27T16:06:02.634Z,29.60
2018-05-27T16:08:30.848Z,29.50
2018-05-27T16:10:59.050Z,29.30
2018-05-27T16:13:27.276Z,29.20
2018-05-27T16:15:55.481Z,29.10
2018-05-27T16:18:23.691Z,29.00
2018-05-27T16:20:51.918Z,28.90
2018-05-27T16:23:20.399Z,28.70
2018-05-27T16:25:49.238Z,28.60
2018-05-27T16:28:17.463Z,28.50
2018-05-27T16:30:45.720Z,28.40
2018-05-27T16:33:13.931Z,28.30
2018-05-27T16:35:42.142Z,28.10
2018-05-27T16:38:10.342Z,28.00
2018-05-27T16:40:39.085Z,27.90
2018-05-27T16:43:07.330Z,27.50
2018-05-27T16:45:35.564Z,27.70
2018-05-27T16:48:03.812Z,27.60
2018-05-27T16:50:32.023Z,27.50
2018-05-27T16:53:00.618Z,27.50
2018-05-27T16:55:29.434Z,27.40
2018-05-27T16:57:57.700Z,27.30
2018-05-27T17:00:26.674Z,27.20
2018-05-27T17:02:56.322Z,27.20
2018-05-27T17:05:25.502Z,27.20
2018-05-27T17:07:54.133Z,27.10
2018-05-27T17:10:25.109Z,27.00
2018-05-27T17:12:54.242Z,27.00
2018-05-27T17:15:22.470Z,26.90
2018-05-27T17:17:53.228Z,26.80
2018-05-27T17:20:21.690Z,26.70
2018-05-27T17:22:50.266Z,26.60
2018-05-27T17:25:18.526Z,26.40
2018-05-27T17:27:47.711Z,26.30
2018-05-27T17:30:15.900Z,26.20
2018-05-27T17:32:44.105Z,26.10
2018-05-27T17:35:12.338Z,26.10
2018-05-27T17:37:40.534Z,26.00
2018-05-27T17:40:08.909Z,25.90
2018-05-27T17:42:38.219Z,25.70
2018-05-27T17:45:07.139Z,25.50
2018-05-27T17:47:36.104Z,25.30
2018-05-27T17:50:04.346Z,25.00
2018-05-27T17:52:32.614Z,24.80
2018-05-27T17:55:00.892Z,24.70
2018-05-27T17:57:29.105Z,24.60
2018-05-27T17:59:57.355Z,24.40
2018-05-27T18:02:25.625Z,24.40
2018-05-27T18:04:55.001Z,24.30
2018-05-27T18:07:23.231Z,24.30
2018-05-27T18:09:52.194Z,24.20
2018-05-27T18:12:20.595Z,24.20
2018-05-27T18:14:48.829Z,24.10
2018-05-27T18:17:17.056Z,24.10
2018-05-27T18:19:45.283Z,24.10
2018-05-27T18:22:13.533Z,24.00
2018-05-27T18:24:41.848Z,23.90
2018-05-27T18:27:10.048Z,23.90
2018-05-27T18:29:38.301Z,23.80
2018-05-27T18:32:06.629Z,23.80
2018-05-27T18:34:34.829Z,23.70
2018-05-27T18:37:03.058Z,23.60
2018-05-27T18:39:31.362Z,23.30
2018-05-27T18:42:00.381Z,23.50
2018-05-27T18:44:29.600Z,23.50
2018-05-27T18:46:57.845Z,23.40
2018-05-27T18:49:26.879Z,23.40
2018-05-27T18:51:55.146Z,23.30
2018-05-27T18:54:23.366Z,23.30
2018-05-27T18:56:51.561Z,23.30
2018-05-27T18:59:19.778Z,23.30
2018-05-27T19:01:48.705Z,23.30
2018-05-27T19:04:16.959Z,23.30
2018-05-27T19:06:45.198Z,23.40
2018-05-27T19:09:13.419Z,23.40
2018-05-27T19:11:41.609Z,23.40
2018-05-27T19:14:09.831Z,23.50
2018-05-27T19:16:38.086Z,23.60
2018-05-27T19:19:06.978Z,23.60
2018-05-27T19:21:35.515Z,23.60
2018-05-27T19:24:03.732Z,23.70
2018-05-27T19:26:32.107Z,23.70
2018-05-27T19:29:00.329Z,23.80
2018-05-27T19:31:28.621Z,23.80
2018-05-27T19:33:57.578Z,23.80
2018-05-27T19:36:25.788Z,23.80
2018-05-27T19:38:54.007Z,23.90
2018-05-27T19:41:22.208Z,23.80
2018-05-27T19:43:50.397Z,23.80
2018-05-27T19:46:19.412Z,23.80
2018-05-27T19:48:47.641Z,23.70
2018-05-27T19:51:15.903Z,23.70
2018-05-27T19:53:44.148Z,23.60
2018-05-27T19:56:13.155Z,23.60
2018-05-27T19:58:41.355Z,23.60
2018-05-27T20:01:09.630Z,23.60
2018-05-27T20:03:37.860Z,23.50
2018-05-27T20:06:06.069Z,23.50
2018-05-27T20:08:34.354Z,23.50
2018-05-27T20:11:02.588Z,23.50
2018-05-27T20:13:31.490Z,23.50
2018-05-27T20:15:59.748Z,23.40
2018-05-27T20:18:27.956Z,23.40
2018-05-27T20:20:56.161Z,23.40
2018-05-27T20:23:24.385Z,23.40
2018-05-27T20:25:52.587Z,23.30
2018-05-27T20:28:20.844Z,23.30
2018-05-27T20:30:49.154Z,23.40
2018-05-27T20:33:18.902Z,23.40
2018-05-27T20:35:47.105Z,23.40
2018-05-27T20:38:15.334Z,23.40
2018-05-27T20:40:43.537Z,23.40
2018-05-27T20:43:11.796Z,23.40
2018-05-27T20:45:40.052Z,23.30
2018-05-27T20:48:09.084Z,23.30
2018-05-27T20:50:37.342Z,23.30
2018-05-27T20:53:05.571Z,23.30
2018-05-27T20:55:34.700Z,23.30
2018-05-27T20:58:03.116Z,23.20
2018-05-27T21:00:31.373Z,23.20
2018-05-27T21:03:00.498Z,23.20
2018-05-27T21:05:28.743Z,23.20
2018-05-27T21:07:57.017Z,23.20
2018-05-27T21:10:25.214Z,23.20
2018-05-27T21:12:53.501Z,23.10
2018-05-27T21:15:22.552Z,23.10
2018-05-27T21:17:50.796Z,23.10
2018-05-27T21:20:19.098Z,23.00
2018-05-27T21:22:47.352Z,23.00
2018-05-27T21:25:15.576Z,22.90
2018-05-27T21:27:43.844Z,22.90
2018-05-27T21:30:12.078Z,22.90
2018-05-27T21:32:41.033Z,22.80
2018-05-27T21:35:09.268Z,22.70
2018-05-27T21:37:37.671Z,22.60
2018-05-27T21:40:05.896Z,22.50
2018-05-27T21:42:35.535Z,22.50
2018-05-27T21:45:03.975Z,22.40
2018-05-27T21:47:32.205Z,22.40
2018-05-27T21:50:01.149Z,22.30
2018-05-27T21:52:30.217Z,22.30
2018-05-27T21:54:58.449Z,22.20
2018-05-27T21:57:26.706Z,22.20
2018-05-27T21:59:55.199Z,22.10
2018-05-27T22:02:23.681Z,22.10
2018-05-27T22:04:53.700Z,22.00
2018-05-27T22:07:22.147Z,22.00
2018-05-27T22:09:50.358Z,21.90
2018-05-27T22:12:18.566Z,21.90
2018-05-27T22:14:46.818Z,21.90
2018-05-27T22:17:15.832Z,21.80
2018-05-27T22:19:44.903Z,21.80
2018-05-27T22:22:14.154Z,21.70
2018-05-27T22:24:43.248Z,21.70
2018-05-27T22:27:11.538Z,21.60
2018-05-27T22:29:39.780Z,21.60
2018-05-27T22:32:08.533Z,21.50
2018-05-27T22:34:37.769Z,21.50
2018-05-27T22:37:07.262Z,21.50
2018-05-27T22:39:35.505Z,21.40
2018-05-27T22:42:03.750Z,21.40
2018-05-27T22:44:32.461Z,21.30
2018-05-27T22:47:00.688Z,21.30
2018-05-27T22:49:29.956Z,21.30
2018-05-27T22:51:58.193Z,21.20
2018-05-27T22:54:26.437Z,21.20
2018-05-27T22:56:54.671Z,21.20
2018-05-27T22:59:23.746Z,21.10
2018-05-27T23:01:52.385Z,21.10
2018-05-27T23:04:20.616Z,21.10
2018-05-27T23:06:50.129Z,21.00
2018-05-27T23:09:18.334Z,21.00
2018-05-27T23:11:47.117Z,20.90
2018-05-27T23:14:15.899Z,20.90
2018-05-27T23:16:44.197Z,20.80
2018-05-27T23:19:12.426Z,20.80
2018-05-27T23:21:41.394Z,20.70
2018-05-27T23:24:09.640Z,20.70
2018-05-27T23:26:37.857Z,20.70
2018-05-27T23:29:06.232Z,20.60
2018-05-27T23:31:34.419Z,20.60
2018-05-27T23:34:03.032Z,20.50
2018-05-27T23:36:31.947Z,20.50
2018-05-27T23:39:01.504Z,20.40
2018-05-27T23:41:29.754Z,20.40
2018-05-27T23:43:57.985Z,20.40
2018-05-27T23:46:26.180Z,20.30
2018-05-27T23:48:54.454Z,20.30
2018-05-27T23:51:22.634Z,20.30
2018-05-27T23:53:51.995Z,20.30
2018-05-27T23:56:20.248Z,20.30
2018-05-27T23:58:48.490Z,20.20
